Time;durP1;ratioP1;P1;durP2;ratioP2;P2;SDS_P1;SDS_P2;PMS_P1;PMS_P2;Temp;Humidity;BMP_temperature;BMP_pressure;BME280_temperature;BME280_humidity;BME280_pressure;Samples;Min_cycle;Max_cycle;Signal;HPM_P1;HPM_P2
2023/04/22 00:01:44;;;;;;;4.60;4.20;;;;;;;;;;5074595;28;20752;-76
2023/04/22 00:04:11;;;;;;;5.63;3.90;;;;;;;;;;5074382;28;20243;-77
2023/04/22 00:06:37;;;;;;;6.57;3.60;;;;;;;;;;5074347;28;20208;-76
2023/04/22 00:09:03;;;;;;;6.37;3.77;;;;;;;;;;5074743;28;20211;-76
2023/04/22 00:11:29;;;;;;;4.77;3.87;;;;;;;;;;5074759;28;20226;-76
2023/04/22 00:13:56;;;;;;;6.60;4.00;;;;;;;;;;5074322;28;20236;-76
2023/04/22 00:16:22;;;;;;;4.73;4.20;;;;;;;;;;5074638;28;20204;-76
2023/04/22 00:18:48;;;;;;;5.70;4.13;;;;;;;;;;5074490;28;20658;-76
2023/04/22 00:23:50;;;;;;;5.73;3.80;;;;;;;;;;5396992;22;20252;-76
2023/04/22 00:26:16;;;;;;;4.93;3.97;;;;;;;;;;5034446;28;20218;-76
2023/04/22 00:28:42;;;;;;;6.00;4.30;;;;;;;;;;5034647;28;20206;-76
2023/04/22 00:31:08;;;;;;;5.37;4.20;;;;;;;;;;5034505;28;20209;-76
2023/04/22 00:33:35;;;;;;;5.63;3.63;;;;;;;;;;5033990;28;20574;-76
2023/04/22 00:36:01;;;;;;;5.23;3.90;;;;;;;;;;5034642;28;20300;-76
2023/04/22 00:38:27;;;;;;;6.57;4.63;;;;;;;;;;5034011;28;20216;-76
2023/04/22 00:40:54;;;;;;;5.13;4.40;;;;;;;;;;5034139;28;20213;-75
2023/04/22 00:43:20;;;;;;;6.30;4.20;;;;;;;;;;5034166;28;20259;-76
2023/04/22 00:45:47;;;;;;;5.30;4.27;;;;;;;;;;5033791;28;20676;-76
2023/04/22 00:48:13;;;;;;;6.90;4.57;;;;;;;;;;5034027;28;20205;-76
2023/04/22 00:50:39;;;;;;;5.90;4.90;;;;;;;;;;5034063;28;20212;-76
2023/04/22 00:53:06;;;;;;;4.83;4.17;;;;;;;;;;5033802;28;20228;-76
2023/04/22 00:55:32;;;;;;;4.83;4.17;;;;;;;;;;5034069;28;20209;-76
2023/04/22 00:58:00;;;;;;;5.77;3.77;;;;;;;;;;5034151;28;20221;-76
2023/04/22 01:00:27;;;;;;;4.23;3.70;;;;;;;;;;5034034;28;20209;-76
2023/04/22 01:02:54;;;;;;;5.57;3.47;;;;;;;;;;5033925;28;20232;-76
2023/04/22 01:05:21;;;;;;;5.73;3.43;;;;;;;;;;5033549;28;20266;-76
2023/04/22 01:07:47;;;;;;;6.23;3.50;;;;;;;;;;5034634;28;20213;-76
2023/04/22 01:10:13;;;;;;;4.20;3.47;;;;;;;;;;5033600;28;20212;-76
2023/04/22 01:12:40;;;;;;;5.23;3.40;;;;;;;;;;5033825;28;20255;-76
2023/04/22 01:15:06;;;;;;;5.13;3.20;;;;;;;;;;5033838;28;20208;-76
2023/04/22 01:17:32;;;;;;;3.73;3.40;;;;;;;;;;5033793;28;20220;-76
2023/04/22 01:19:59;;;;;;;4.40;3.37;;;;;;;;;;5033841;28;20210;-76
2023/04/22 01:22:32;;;;;;;4.00;3.20;;;;;;;;;;5033317;28;20233;-76
2023/04/22 01:24:58;;;;;;;4.20;3.40;;;;;;;;;;5033314;28;20599;-76
2023/04/22 01:27:25;;;;;;;7.13;3.67;;;;;;;;;;5033468;28;20190;-76
2023/04/22 01:29:51;;;;;;;4.13;3.73;;;;;;;;;;5016228;28;20212;-76
2023/04/22 01:32:18;;;;;;;5.53;3.93;;;;;;;;;;5033584;28;20209;-76
2023/04/22 01:34:44;;;;;;;5.07;3.27;;;;;;;;;;5033668;28;20209;-76
2023/04/22 01:37:11;;;;;;;4.33;3.30;;;;;;;;;;5033744;28;20220;-76
2023/04/22 01:39:37;;;;;;;3.53;3.23;;;;;;;;;;5033566;28;20209;-76
2023/04/22 01:42:03;;;;;;;4.60;3.37;;;;;;;;;;5033319;28;20237;-76
2023/04/22 01:44:29;;;;;;;3.67;3.17;;;;;;;;;;5033495;28;20233;-76
2023/04/22 01:46:56;;;;;;;5.57;3.40;;;;;;;;;;5033180;28;20218;-76
2023/04/22 01:49:22;;;;;;;3.80;3.40;;;;;;;;;;5033221;28;20223;-76
2023/04/22 01:51:48;;;;;;;6.33;3.70;;;;;;;;;;5032924;28;20204;-76
2023/04/22 01:54:15;;;;;;;4.40;3.40;;;;;;;;;;5033318;28;20594;-75
2023/04/22 01:56:42;;;;;;;4.17;3.50;;;;;;;;;;5033403;28;20293;-75
2023/04/22 01:59:09;;;;;;;4.57;3.50;;;;;;;;;;5033395;28;20291;-75
2023/04/22 02:01:35;;;;;;;4.37;3.50;;;;;;;;;;5033176;28;20223;-75
2023/04/22 02:04:01;;;;;;;6.83;3.77;;;;;;;;;;5032979;28;20577;-75
2023/04/22 02:06:27;;;;;;;3.93;3.53;;;;;;;;;;5032972;28;20569;-76
2023/04/22 02:08:54;;;;;;;4.70;4.10;;;;;;;;;;5033287;28;20204;-75
2023/04/22 02:11:20;;;;;;;5.40;3.73;;;;;;;;;;5033277;28;20210;-75
2023/04/22 02:13:47;;;;;;;6.33;4.10;;;;;;;;;;5032888;28;20588;-75
2023/04/22 02:16:13;;;;;;;4.40;4.00;;;;;;;;;;5035314;28;20569;-75
2023/04/22 02:18:39;;;;;;;5.77;4.07;;;;;;;;;;5037168;28;20233;-75
2023/04/22 02:21:05;;;;;;;4.03;3.73;;;;;;;;;;5036792;28;20216;-76
2023/04/22 02:23:32;;;;;;;4.90;3.90;;;;;;;;;;5036861;28;20230;-75
2023/04/22 02:25:58;;;;;;;3.90;3.50;;;;;;;;;;5036909;28;20282;-76
2023/04/22 02:28:24;;;;;;;3.90;3.30;;;;;;;;;;5036640;28;20670;-76
2023/04/22 02:30:50;;;;;;;4.60;3.53;;;;;;;;;;5036817;28;20698;-75
2023/04/22 02:33:17;;;;;;;4.13;3.73;;;;;;;;;;5036428;28;20709;-75
2023/04/22 02:35:43;;;;;;;5.00;3.30;;;;;;;;;;5036592;28;20204;-76
2023/04/22 02:38:10;;;;;;;5.57;4.10;;;;;;;;;;5036750;28;20216;-76
2023/04/22 02:40:36;;;;;;;4.17;3.77;;;;;;;;;;5036405;28;20212;-76
2023/04/22 02:43:02;;;;;;;4.23;3.60;;;;;;;;;;5036201;28;20729;-76
2023/04/22 02:45:29;;;;;;;4.73;3.67;;;;;;;;;;5036253;28;20667;-76
2023/04/22 02:47:55;;;;;;;5.63;4.23;;;;;;;;;;5036254;28;20657;-75
2023/04/22 02:50:21;;;;;;;5.20;4.23;;;;;;;;;;5036517;28;20206;-76
2023/04/22 02:52:47;;;;;;;6.50;4.90;;;;;;;;;;5036436;28;20226;-76
2023/04/22 02:55:14;;;;;;;6.80;5.30;;;;;;;;;;5036109;28;20209;-75
2023/04/22 02:57:40;;;;;;;6.13;5.53;;;;;;;;;;5037399;28;20223;-76
2023/04/22 03:00:07;;;;;;;6.70;5.67;;;;;;;;;;5036822;28;20218;-76
2023/04/22 03:02:34;;;;;;;7.30;5.67;;;;;;;;;;5036552;28;20293;-76
2023/04/22 03:05:00;;;;;;;7.87;5.00;;;;;;;;;;5036209;28;20215;-76
2023/04/22 03:07:27;;;;;;;6.03;4.73;;;;;;;;;;5036631;28;20212;-75
2023/04/22 03:09:54;;;;;;;6.90;5.07;;;;;;;;;;5035589;28;20538;-76
2023/04/22 03:12:20;;;;;;;4.97;4.47;;;;;;;;;;5035818;28;20219;-76
2023/04/22 03:14:47;;;;;;;6.63;5.23;;;;;;;;;;5035999;28;20215;-76
2023/04/22 03:17:13;;;;;;;6.47;5.70;;;;;;;;;;5035690;28;20574;-75
2023/04/22 03:19:39;;;;;;;7.13;6.43;;;;;;;;;;5036040;28;20206;-76
2023/04/22 03:22:05;;;;;;;7.20;6.30;;;;;;;;;;5035891;28;20256;-75
2023/04/22 03:24:32;;;;;;;6.20;5.70;;;;;;;;;;5035740;28;20228;-75
2023/04/22 03:26:58;;;;;;;8.27;6.33;;;;;;;;;;5034505;28;20215;-75
2023/04/22 03:29:24;;;;;;;7.50;5.80;;;;;;;;;;5035701;28;20207;-75
2023/04/22 03:31:50;;;;;;;7.00;5.80;;;;;;;;;;5035676;28;20211;-75
2023/04/22 03:34:17;;;;;;;6.93;5.30;;;;;;;;;;5035889;28;20223;-76
2023/04/22 03:36:43;;;;;;;7.67;5.27;;;;;;;;;;5035500;28;20664;-76
2023/04/22 03:39:09;;;;;;;6.30;4.93;;;;;;;;;;5035787;28;20212;-75
2023/04/22 03:41:35;;;;;;;6.20;5.47;;;;;;;;;;5035480;28;20207;-76
2023/04/22 03:44:02;;;;;;;8.33;6.60;;;;;;;;;;5035251;28;20234;-76
2023/04/22 03:46:28;;;;;;;6.43;5.80;;;;;;;;;;5035019;28;20226;-76
2023/04/22 03:48:54;;;;;;;7.87;6.83;;;;;;;;;;5035558;28;20211;-76
2023/04/22 03:51:20;;;;;;;7.07;6.47;;;;;;;;;;5035334;28;20208;-76
2023/04/22 03:53:47;;;;;;;7.17;6.33;;;;;;;;;;5035692;28;20218;-76
2023/04/22 03:56:13;;;;;;;7.40;6.60;;;;;;;;;;5035897;28;20202;-76
2023/04/22 03:58:39;;;;;;;7.83;7.07;;;;;;;;;;5035297;28;20208;-76
2023/04/22 04:01:06;;;;;;;7.60;6.70;;;;;;;;;;5035264;28;20210;-76
2023/04/22 04:03:32;;;;;;;7.23;6.00;;;;;;;;;;5034801;28;20231;-76
2023/04/22 04:05:59;;;;;;;8.67;6.40;;;;;;;;;;5035089;28;20213;-76
2023/04/22 04:08:25;;;;;;;7.17;6.20;;;;;;;;;;5035262;28;20216;-76
2023/04/22 04:10:51;;;;;;;7.23;6.30;;;;;;;;;;5034932;28;20206;-76
2023/04/22 04:13:18;;;;;;;7.07;6.03;;;;;;;;;;5035026;28;20225;-76
2023/04/22 04:15:44;;;;;;;7.77;6.43;;;;;;;;;;5035283;28;20221;-76
2023/04/22 04:18:10;;;;;;;7.10;6.50;;;;;;;;;;5033488;28;20353;-76
2023/04/22 04:20:37;;;;;;;7.07;6.37;;;;;;;;;;5033089;28;20280;-76
2023/04/22 04:23:03;;;;;;;6.70;6.00;;;;;;;;;;5032900;28;20322;-76
2023/04/22 04:25:36;;;;;;;7.57;6.10;;;;;;;;;;5032882;28;20215;-76
2023/04/22 04:28:02;;;;;;;6.90;6.30;;;;;;;;;;5032869;28;20190;-76
2023/04/22 04:30:28;;;;;;;8.27;6.00;;;;;;;;;;5033108;28;20202;-76
2023/04/22 04:32:56;;;;;;;6.73;6.13;;;;;;;;;;5032905;28;20217;-76
2023/04/22 04:35:22;;;;;;;6.73;5.80;;;;;;;;;;5034160;28;20214;-76
2023/04/22 04:37:49;;;;;;;6.50;5.90;;;;;;;;;;5034490;28;20213;-76
2023/04/22 04:40:16;;;;;;;7.00;5.87;;;;;;;;;;5033671;28;20764;-76
2023/04/22 04:42:42;;;;;;;7.07;6.37;;;;;;;;;;5034255;28;20262;-76
2023/04/22 04:45:09;;;;;;;7.13;6.27;;;;;;;;;;5034428;28;20210;-76
2023/04/22 04:47:35;;;;;;;6.30;5.73;;;;;;;;;;5034160;28;20211;-76
2023/04/22 04:50:03;;;;;;;7.00;6.23;;;;;;;;;;5034152;28;20222;-76
2023/04/22 04:52:30;;;;;;;8.33;6.40;;;;;;;;;;5034340;28;20574;-76
2023/04/22 04:54:56;;;;;;;8.30;6.20;;;;;;;;;;5034780;28;20209;-76
2023/04/22 04:57:22;;;;;;;6.80;6.20;;;;;;;;;;5034136;28;20232;-76
2023/04/22 04:59:49;;;;;;;6.70;6.10;;;;;;;;;;5033954;28;20298;-76
2023/04/22 05:02:15;;;;;;;7.00;5.53;;;;;;;;;;5032116;28;20217;-76
2023/04/22 05:04:41;;;;;;;7.53;5.73;;;;;;;;;;5032185;28;20214;-76
2023/04/22 05:07:07;;;;;;;8.23;5.70;;;;;;;;;;5032069;28;20203;-76
2023/04/22 05:09:36;;;;;;;6.03;5.47;;;;;;;;;;5031383;28;20584;-76
2023/04/22 05:12:03;;;;;;;6.70;5.27;;;;;;;;;;5031915;28;20233;-76
2023/04/22 05:14:30;;;;;;;6.40;5.70;;;;;;;;;;5031938;28;20767;-76
2023/04/22 05:16:56;;;;;;;6.03;5.03;;;;;;;;;;5032789;28;20567;-76
2023/04/22 05:19:22;;;;;;;6.30;5.70;;;;;;;;;;5034162;28;20209;-76
2023/04/22 05:21:48;;;;;;;6.63;6.03;;;;;;;;;;5034063;28;20217;-76
2023/04/22 05:24:15;;;;;;;7.23;6.40;;;;;;;;;;5033559;28;20230;-75
2023/04/22 05:26:41;;;;;;;6.53;6.00;;;;;;;;;;5033587;28;20218;-76
2023/04/22 05:29:07;;;;;;;6.97;5.90;;;;;;;;;;5033473;28;20214;-76
2023/04/22 05:31:33;;;;;;;7.27;6.33;;;;;;;;;;5033518;28;20579;-76
2023/04/22 05:34:00;;;;;;;8.63;6.60;;;;;;;;;;5033631;28;20309;-76
2023/04/22 05:36:27;;;;;;;7.67;6.93;;;;;;;;;;5033502;28;20308;-76
2023/04/22 05:38:53;;;;;;;7.80;6.57;;;;;;;;;;5033456;28;20210;-76
2023/04/22 05:41:19;;;;;;;7.13;6.50;;;;;;;;;;5033525;28;20213;-76
2023/04/22 05:43:45;;;;;;;6.80;6.10;;;;;;;;;;5033188;28;20229;-76
2023/04/22 05:46:12;;;;;;;7.90;7.20;;;;;;;;;;5033260;28;20207;-76
2023/04/22 05:48:38;;;;;;;10.07;6.63;;;;;;;;;;5033415;28;20206;-76
2023/04/22 05:51:04;;;;;;;10.20;6.80;;;;;;;;;;5035803;28;20206;-76
2023/04/22 05:53:30;;;;;;;7.63;6.73;;;;;;;;;;5037537;28;20221;-76
2023/04/22 05:55:57;;;;;;;7.87;7.03;;;;;;;;;;5037551;28;20206;-76
2023/04/22 05:58:23;;;;;;;7.40;6.70;;;;;;;;;;5038207;28;20220;-77
2023/04/22 06:00:49;;;;;;;9.90;7.17;;;;;;;;;;5037762;28;20207;-76
2023/04/22 06:03:15;;;;;;;7.77;7.00;;;;;;;;;;5037008;28;20231;-76
2023/04/22 06:05:43;;;;;;;8.03;7.23;;;;;;;;;;5037074;28;20207;-77
2023/04/22 06:08:09;;;;;;;7.87;7.07;;;;;;;;;;5037287;28;20250;-77
2023/04/22 06:10:35;;;;;;;8.40;7.00;;;;;;;;;;5037149;28;20212;-76
2023/04/22 06:13:01;;;;;;;8.07;6.67;;;;;;;;;;5037338;28;20252;-76
2023/04/22 06:15:28;;;;;;;8.00;7.20;;;;;;;;;;5037231;28;20208;-76
2023/04/22 06:17:54;;;;;;;7.87;6.60;;;;;;;;;;5034949;28;20209;-76
2023/04/22 06:20:21;;;;;;;8.23;6.63;;;;;;;;;;5031903;28;20215;-76
2023/04/22 06:22:47;;;;;;;7.60;6.80;;;;;;;;;;5036465;28;20243;-76
2023/04/22 06:25:13;;;;;;;7.83;6.90;;;;;;;;;;5036701;28;20683;-76
2023/04/22 06:27:39;;;;;;;7.37;6.70;;;;;;;;;;5037012;28;20190;-76
2023/04/22 06:30:06;;;;;;;8.03;6.47;;;;;;;;;;5036855;28;20216;-76
2023/04/22 06:32:32;;;;;;;8.43;6.70;;;;;;;;;;5037048;28;20262;-76
2023/04/22 06:34:58;;;;;;;6.67;6.00;;;;;;;;;;5035958;28;20204;-75
2023/04/22 06:37:25;;;;;;;6.57;5.97;;;;;;;;;;5036528;28;20583;-76
2023/04/22 06:39:52;;;;;;;6.30;5.70;;;;;;;;;;5035463;28;20655;-76
2023/04/22 06:42:18;;;;;;;6.33;5.73;;;;;;;;;;5036700;28;20210;-76
2023/04/22 06:44:44;;;;;;;7.57;5.80;;;;;;;;;;5035727;28;20248;-76
2023/04/22 06:47:10;;;;;;;6.63;5.70;;;;;;;;;;5036520;28;20202;-76
2023/04/22 06:49:38;;;;;;;6.10;5.60;;;;;;;;;;5035741;28;20228;-76
2023/04/22 06:52:04;;;;;;;6.27;5.77;;;;;;;;;;5036639;28;20206;-76
2023/04/22 06:54:31;;;;;;;6.30;5.70;;;;;;;;;;5035162;28;20222;-76
2023/04/22 06:56:57;;;;;;;5.70;5.20;;;;;;;;;;5036510;28;20255;-76
2023/04/22 06:59:24;;;;;;;6.13;5.57;;;;;;;;;;5035431;28;20206;-76
2023/04/22 07:01:50;;;;;;;6.20;5.60;;;;;;;;;;5033075;28;20206;-76
2023/04/22 07:04:16;;;;;;;6.07;5.47;;;;;;;;;;5033538;28;20229;-76
2023/04/22 07:06:43;;;;;;;6.73;5.67;;;;;;;;;;5036377;28;20219;-76
2023/04/22 07:09:09;;;;;;;6.23;4.80;;;;;;;;;;5034912;28;20206;-76
2023/04/22 07:11:35;;;;;;;5.63;5.13;;;;;;;;;;5035334;28;20206;-76
2023/04/22 07:14:02;;;;;;;5.37;4.87;;;;;;;;;;5035245;28;20412;-76
2023/04/22 07:16:28;;;;;;;4.93;4.53;;;;;;;;;;5035393;28;20206;-76
2023/04/22 07:18:54;;;;;;;5.67;5.10;;;;;;;;;;5036342;28;20220;-76
2023/04/22 07:21:20;;;;;;;5.63;4.73;;;;;;;;;;5035265;28;20217;-76
2023/04/22 07:23:47;;;;;;;7.57;5.80;;;;;;;;;;5032710;28;20590;-76
2023/04/22 07:26:13;;;;;;;5.43;4.93;;;;;;;;;;5035554;28;20573;-76
2023/04/22 07:28:39;;;;;;;5.87;5.10;;;;;;;;;;5028434;28;20212;-76
2023/04/22 07:31:06;;;;;;;6.53;4.90;;;;;;;;;;5035604;28;20202;-76
2023/04/22 07:33:32;;;;;;;4.33;4.03;;;;;;;;;;5035077;28;20225;-76
2023/04/22 07:35:58;;;;;;;5.30;4.80;;;;;;;;;;5035045;28;20229;-76
2023/04/22 07:38:25;;;;;;;8.00;4.63;;;;;;;;;;5033431;28;20214;-76
2023/04/22 07:40:51;;;;;;;6.03;4.57;;;;;;;;;;5033885;28;20221;-76
2023/04/22 07:43:17;;;;;;;5.47;4.77;;;;;;;;;;5033975;28;20237;-76
2023/04/22 07:45:44;;;;;;;5.13;4.53;;;;;;;;;;5034832;28;20213;-76
2023/04/22 07:48:10;;;;;;;5.50;5.00;;;;;;;;;;5034027;28;20206;-76
2023/04/22 07:50:36;;;;;;;5.27;4.37;;;;;;;;;;5034251;28;20208;-76
2023/04/22 07:53:02;;;;;;;5.17;4.63;;;;;;;;;;5033765;28;20226;-76
2023/04/22 07:55:29;;;;;;;4.97;4.30;;;;;;;;;;5035380;28;20206;-76
2023/04/22 07:57:55;;;;;;;6.03;4.50;;;;;;;;;;5034072;28;20742;-76
2023/04/22 08:00:21;;;;;;;5.10;4.37;;;;;;;;;;5033973;28;20687;-76
2023/04/22 08:02:48;;;;;;;5.03;4.50;;;;;;;;;;5033497;28;20734;-76
2023/04/22 08:05:14;;;;;;;4.83;4.37;;;;;;;;;;5035122;28;20229;-76
2023/04/22 08:07:40;;;;;;;6.73;4.50;;;;;;;;;;5033983;28;20206;-75
2023/04/22 08:10:07;;;;;;;4.63;4.03;;;;;;;;;;5034943;28;20210;-76
2023/04/22 08:12:33;;;;;;;4.20;3.60;;;;;;;;;;5025367;28;20271;-76
2023/04/22 08:14:59;;;;;;;4.10;3.70;;;;;;;;;;5049971;28;20326;-76
2023/04/22 08:17:26;;;;;;;3.80;3.40;;;;;;;;;;5043310;28;20582;-76
2023/04/22 08:19:52;;;;;;;4.30;3.90;;;;;;;;;;5032816;28;20206;-76
2023/04/22 08:22:18;;;;;;;4.07;3.67;;;;;;;;;;5033137;28;20201;-76
2023/04/22 08:24:44;;;;;;;5.37;3.70;;;;;;;;;;5034194;28;20256;-76
2023/04/22 08:27:11;;;;;;;3.40;3.10;;;;;;;;;;5032673;28;20201;-76
2023/04/22 08:29:37;;;;;;;4.30;4.00;;;;;;;;;;5034221;28;20217;-76
2023/04/22 08:32:03;;;;;;;4.27;3.63;;;;;;;;;;5031379;28;20206;-76
2023/04/22 08:34:30;;;;;;;5.10;4.00;;;;;;;;;;5033320;28;20222;-76
2023/04/22 08:36:56;;;;;;;7.57;4.20;;;;;;;;;;5031802;28;20206;-76
2023/04/22 08:39:22;;;;;;;4.43;3.67;;;;;;;;;;5034438;28;20210;-76
2023/04/22 08:41:50;;;;;;;4.20;3.87;;;;;;;;;;5033019;28;20237;-76
2023/04/22 08:44:16;;;;;;;4.67;3.70;;;;;;;;;;5015377;28;20234;-76
2023/04/22 08:46:45;;;;;;;3.90;3.50;;;;;;;;;;5016539;28;20213;-76
2023/04/22 08:49:14;;;;;;;5.53;3.40;;;;;;;;;;5030113;28;20289;-76
2023/04/22 08:51:42;;;;;;;5.60;3.70;;;;;;;;;;5027988;28;20295;-76
2023/04/22 08:54:08;;;;;;;6.53;3.67;;;;;;;;;;5032564;28;20222;-76
2023/04/22 08:56:35;;;;;;;3.50;2.77;;;;;;;;;;5033282;28;20206;-76
2023/04/22 08:59:02;;;;;;;3.70;3.30;;;;;;;;;;5030367;28;20205;-76
2023/04/22 09:01:31;;;;;;;3.80;3.20;;;;;;;;;;5032828;28;20213;-76
2023/04/22 09:04:00;;;;;;;4.10;3.40;;;;;;;;;;5033172;28;20237;-76
2023/04/22 09:06:27;;;;;;;3.33;3.03;;;;;;;;;;5013721;28;20211;-76
2023/04/22 09:08:54;;;;;;;3.93;2.50;;;;;;;;;;5014393;28;20206;-76
2023/04/22 09:11:20;;;;;;;2.30;2.07;;;;;;;;;;5033162;28;20603;-76
2023/04/22 09:13:47;;;;;;;3.07;2.43;;;;;;;;;;5032272;28;20228;-76
2023/04/22 09:16:13;;;;;;;3.43;2.47;;;;;;;;;;5032184;28;20214;-76
2023/04/22 09:18:40;;;;;;;2.83;2.23;;;;;;;;;;5032414;28;20210;-76
2023/04/22 09:21:06;;;;;;;3.20;2.80;;;;;;;;;;5031482;28;20206;-76
2023/04/22 09:23:32;;;;;;;2.67;2.23;;;;;;;;;;5033047;28;20240;-76
2023/04/22 09:25:59;;;;;;;3.27;2.23;;;;;;;;;;5029272;28;20691;-77
2023/04/22 09:28:25;;;;;;;2.10;1.83;;;;;;;;;;5033571;28;20260;-76
2023/04/22 09:30:51;;;;;;;2.60;2.40;;;;;;;;;;5032397;28;20224;-76
2023/04/22 09:33:18;;;;;;;3.10;2.50;;;;;;;;;;5030816;28;20232;-76
2023/04/22 09:35:44;;;;;;;3.60;2.20;;;;;;;;;;5031281;28;20674;-76
2023/04/22 09:38:11;;;;;;;2.50;2.30;;;;;;;;;;5031739;28;20242;-76
2023/04/22 09:40:38;;;;;;;3.67;2.30;;;;;;;;;;5032430;28;20216;-76
2023/04/22 09:43:06;;;;;;;2.63;2.40;;;;;;;;;;5030166;28;20221;-76
2023/04/22 09:45:39;;;;;;;2.50;2.30;;;;;;;;;;5030899;28;20232;-76
2023/04/22 09:48:07;;;;;;;2.57;2.37;;;;;;;;;;5032453;28;20209;-76
2023/04/22 09:50:33;;;;;;;4.37;2.50;;;;;;;;;;5033323;28;20209;-76
2023/04/22 09:53:01;;;;;;;2.30;2.10;;;;;;;;;;5032288;28;20226;-76
2023/04/22 09:55:28;;;;;;;2.87;2.43;;;;;;;;;;5033244;28;20202;-76
2023/04/22 09:57:55;;;;;;;3.67;2.60;;;;;;;;;;5035793;28;20214;-78
2023/04/22 10:00:28;;;;;;;2.83;2.40;;;;;;;;;;5036036;28;20212;-80
2023/04/22 10:02:54;;;;;;;4.03;2.20;;;;;;;;;;5034952;28;20244;-79
2023/04/22 10:05:21;;;;;;;2.83;2.10;;;;;;;;;;5035222;28;20688;-79
2023/04/22 10:07:47;;;;;;;2.57;2.03;;;;;;;;;;5035443;28;20212;-80
2023/04/22 10:10:14;;;;;;;3.87;2.03;;;;;;;;;;5033925;28;20210;-79
2023/04/22 10:12:41;;;;;;;2.73;2.03;;;;;;;;;;5033901;28;20228;-80
2023/04/22 10:15:07;;;;;;;2.90;2.20;;;;;;;;;;5033853;28;20205;-80
2023/04/22 10:17:36;;;;;;;3.10;2.03;;;;;;;;;;5034577;28;20209;-79
2023/04/22 10:20:05;;;;;;;3.47;1.80;;;;;;;;;;5034383;28;20589;-80
2023/04/22 10:22:32;;;;;;;3.17;1.67;;;;;;;;;;5033089;28;20234;-79
2023/04/22 10:24:59;;;;;;;1.93;1.60;;;;;;;;;;5033001;28;20313;-80
2023/04/22 10:27:25;;;;;;;1.80;1.70;;;;;;;;;;5033945;28;20277;-79
2023/04/22 10:29:52;;;;;;;2.47;1.67;;;;;;;;;;5032255;28;20202;-80
2023/04/22 10:32:18;;;;;;;1.97;1.40;;;;;;;;;;5035006;28;20673;-79
2023/04/22 10:34:46;;;;;;;2.63;1.63;;;;;;;;;;5034003;28;20301;-79
2023/04/22 10:37:14;;;;;;;1.63;1.20;;;;;;;;;;5036537;28;20691;-79
2023/04/22 10:39:41;;;;;;;1.92;1.58;;;;;;;;;;5036269;28;20213;-79
2023/04/22 10:42:14;;;;;;;1.50;1.40;;;;;;;;;;5037814;28;20224;-79
2023/04/22 10:44:47;;;;;;;3.08;1.55;;;;;;;;;;5037242;28;20237;-79
2023/04/22 10:47:24;;;;;;;2.05;1.73;;;;;;;;;;5034111;28;20272;-79
2023/04/22 10:49:51;;;;;;;2.72;1.50;;;;;;;;;;5037938;28;20202;-79
2023/04/22 10:52:29;;;;;;;2.80;1.60;;;;;;;;;;5037005;28;20210;-79
2023/04/22 10:54:56;;;;;;;2.42;1.55;;;;;;;;;;5035817;28;20202;-78
2023/04/22 10:57:22;;;;;;;2.55;1.60;;;;;;;;;;5035900;28;20202;-79
2023/04/22 10:59:53;;;;;;;2.20;1.88;;;;;;;;;;5037136;28;20664;-79
2023/04/22 11:02:20;;;;;;;2.20;1.63;;;;;;;;;;5035454;28;20233;-79
2023/04/22 11:04:46;;;;;;;2.75;1.30;;;;;;;;;;5038450;28;20771;-79
2023/04/22 11:07:19;;;;;;;1.85;1.70;;;;;;;;;;5036933;28;20198;-78
2023/04/22 11:09:47;;;;;;;4.25;1.50;;;;;;;;;;5037955;28;20260;-79
2023/04/22 11:12:42;;;;;;;1.50;1.40;;;;;;;;;;5036354;28;20230;-79
2023/04/22 11:15:12;;;;;;;1.40;1.30;;;;;;;;;;5027251;28;20205;-78
2023/04/22 11:17:39;;;;;;;2.28;1.45;;;;;;;;;;5035056;28;20202;-78
2023/04/22 11:20:06;;;;;;;2.92;1.50;;;;;;;;;;5036345;28;20210;-79
2023/04/22 11:22:40;;;;;;;2.35;1.70;;;;;;;;;;5034379;28;20253;-79
2023/04/22 11:25:08;;;;;;;2.10;1.27;;;;;;;;;;5036014;28;20253;-79
2023/04/22 11:27:35;;;;;;;4.20;1.33;;;;;;;;;;5035856;28;20260;-78
2023/04/22 11:30:09;;;;;;;2.13;1.50;;;;;;;;;;5036886;28;20575;-78
2023/04/22 11:32:36;;;;;;;1.83;1.30;;;;;;;;;;5036096;28;20226;-79
2023/04/22 11:35:03;;;;;;;1.92;1.38;;;;;;;;;;5037206;28;20202;-79
2023/04/22 11:37:29;;;;;;;1.30;1.20;;;;;;;;;;5032064;28;20210;-78
2023/04/22 11:40:00;;;;;;;2.80;1.55;;;;;;;;;;5036666;28;20244;-78
2023/04/22 11:42:26;;;;;;;3.15;1.50;;;;;;;;;;5036597;28;20206;-78
2023/04/22 11:44:52;;;;;;;1.77;1.40;;;;;;;;;;5037276;28;20222;-78
2023/04/22 11:47:19;;;;;;;1.50;1.40;;;;;;;;;;5035362;28;20675;-78
2023/04/22 11:49:58;;;;;;;3.00;1.80;;;;;;;;;;5036246;28;20206;-78
2023/04/22 11:52:44;;;;;;;2.05;1.65;;;;;;;;;;5035696;28;20244;-79
2023/04/22 11:55:11;;;;;;;1.70;1.35;;;;;;;;;;5016632;28;20654;-78
2023/04/22 11:57:37;;;;;;;2.65;1.20;;;;;;;;;;5025131;28;20213;-78
2023/04/22 12:00:05;;;;;;;2.80;1.42;;;;;;;;;;5035945;28;20231;-78
2023/04/22 12:02:31;;;;;;;1.95;1.33;;;;;;;;;;5033450;28;20226;-78
2023/04/22 12:04:58;;;;;;;3.00;1.55;;;;;;;;;;5035121;28;20226;-78
2023/04/22 12:07:26;;;;;;;2.67;1.50;;;;;;;;;;5035076;28;20217;-78
2023/04/22 12:09:56;;;;;;;5.13;3.80;;;;;;;;;;5035958;28;20214;-79
2023/04/22 12:12:26;;;;;;;2.80;2.35;;;;;;;;;;5034424;28;20206;-78
2023/04/22 12:14:52;;;;;;;3.15;1.73;;;;;;;;;;5028004;28;20209;-78
2023/04/22 12:17:25;;;;;;;3.22;1.63;;;;;;;;;;5055779;28;20676;-78
2023/04/22 12:19:57;;;;;;;3.65;1.73;;;;;;;;;;5015808;28;20573;-78
2023/04/22 12:22:27;;;;;;;7.80;1.77;;;;;;;;;;5030014;28;20237;-78
2023/04/22 12:24:53;;;;;;;1.50;1.27;;;;;;;;;;5035777;28;20229;-78
2023/04/22 12:27:20;;;;;;;2.78;1.80;;;;;;;;;;5034484;28;20264;-78
2023/04/22 12:29:56;;;;;;;2.53;1.40;;;;;;;;;;5036255;28;20251;-79
2023/04/22 12:32:26;;;;;;;4.30;1.65;;;;;;;;;;5034678;28;20216;-78
2023/04/22 12:34:52;;;;;;;2.85;1.92;;;;;;;;;;5034946;28;20660;-78
2023/04/22 12:37:18;;;;;;;4.30;1.60;;;;;;;;;;5053891;28;20190;-78
2023/04/22 12:39:45;;;;;;;2.70;1.42;;;;;;;;;;5039243;28;20210;-78
2023/04/22 12:42:11;;;;;;;4.22;1.80;;;;;;;;;;5034344;28;20221;-78
2023/04/22 12:44:38;;;;;;;2.25;1.73;;;;;;;;;;5034006;28;20225;-79
2023/04/22 12:47:04;;;;;;;3.53;1.40;;;;;;;;;;5034224;28;20206;-78
2023/04/22 12:49:30;;;;;;;1.48;1.38;;;;;;;;;;5035940;28;20206;-78
2023/04/22 12:51:56;;;;;;;3.88;1.42;;;;;;;;;;5034764;28;20213;-78
2023/04/22 12:54:23;;;;;;;2.85;1.92;;;;;;;;;;5035110;28;20226;-78
2023/04/22 12:56:50;;;;;;;2.45;1.50;;;;;;;;;;5034207;28;20212;-78
2023/04/22 12:59:16;;;;;;;2.58;1.42;;;;;;;;;;5034426;28;20228;-78
2023/04/22 13:01:42;;;;;;;1.50;1.40;;;;;;;;;;5034012;28;20202;-78
2023/04/22 13:04:08;;;;;;;2.95;1.58;;;;;;;;;;5034588;28;20226;-78
2023/04/22 13:06:35;;;;;;;3.67;1.80;;;;;;;;;;5033843;28;20233;-78
2023/04/22 13:09:02;;;;;;;4.05;1.73;;;;;;;;;;5034478;28;20629;-79
2023/04/22 13:11:28;;;;;;;3.00;1.60;;;;;;;;;;5034172;28;20210;-78
2023/04/22 13:13:54;;;;;;;4.32;1.65;;;;;;;;;;5034762;28;20572;-78
2023/04/22 13:16:21;;;;;;;2.40;1.30;;;;;;;;;;5033916;28;20198;-78
2023/04/22 13:18:47;;;;;;;2.85;1.30;;;;;;;;;;5035567;28;20213;-78
2023/04/22 13:21:14;;;;;;;2.13;1.88;;;;;;;;;;5034066;28;20197;-78
2023/04/22 13:23:40;;;;;;;4.30;2.97;;;;;;;;;;5034775;28;20225;-78
2023/04/22 13:26:06;;;;;;;1.98;1.50;;;;;;;;;;5033750;28;20607;-78
2023/04/22 13:28:32;;;;;;;3.30;1.75;;;;;;;;;;5034493;28;20683;-78
2023/04/22 13:30:59;;;;;;;3.67;1.60;;;;;;;;;;5034986;28;20202;-79
2023/04/22 13:33:25;;;;;;;3.70;1.65;;;;;;;;;;5015558;28;20237;-79
2023/04/22 13:35:51;;;;;;;4.05;1.40;;;;;;;;;;5014301;28;20222;-78
2023/04/22 13:38:18;;;;;;;3.13;1.50;;;;;;;;;;5035137;28;20221;-79
2023/04/22 13:40:44;;;;;;;1.67;1.52;;;;;;;;;;5034048;28;20664;-78
2023/04/22 13:43:11;;;;;;;5.10;1.90;;;;;;;;;;5032631;28;20236;-79
2023/04/22 13:45:38;;;;;;;1.95;1.70;;;;;;;;;;5034271;28;20252;-79
2023/04/22 13:48:05;;;;;;;2.92;1.95;;;;;;;;;;5034066;28;20213;-80
2023/04/22 13:50:31;;;;;;;3.97;2.10;;;;;;;;;;5035431;28;20221;-79
2023/04/22 13:52:57;;;;;;;2.80;2.22;;;;;;;;;;5033079;28;20229;-80
2023/04/22 13:55:25;;;;;;;3.13;2.83;;;;;;;;;;5035120;28;20615;-79
2023/04/22 13:57:51;;;;;;;2.30;2.03;;;;;;;;;;5034638;28;20205;-79
2023/04/22 14:00:19;;;;;;;5.18;2.40;;;;;;;;;;5036580;28;20705;-80
2023/04/22 14:02:45;;;;;;;2.60;2.15;;;;;;;;;;5034590;28;20234;-79
2023/04/22 14:05:12;;;;;;;4.35;1.70;;;;;;;;;;5036030;28;20230;-79
2023/04/22 14:07:38;;;;;;;3.47;1.98;;;;;;;;;;5034533;28;20206;-79
2023/04/22 14:10:06;;;;;;;4.35;1.60;;;;;;;;;;5035344;28;20664;-80
2023/04/22 14:12:32;;;;;;;2.80;1.65;;;;;;;;;;5035587;28;20773;-78
2023/04/22 14:14:59;;;;;;;4.80;1.90;;;;;;;;;;5039169;28;20661;-79
2023/04/22 14:17:26;;;;;;;2.33;1.92;;;;;;;;;;5037789;28;20214;-79
2023/04/22 14:19:53;;;;;;;2.95;1.90;;;;;;;;;;5039026;28;20263;-79
2023/04/22 14:22:19;;;;;;;5.15;2.00;;;;;;;;;;5038591;28;20295;-79
2023/04/22 14:24:46;;;;;;;5.47;2.20;;;;;;;;;;5037203;28;20645;-80
2023/04/22 14:27:12;;;;;;;4.25;1.60;;;;;;;;;;5037677;28;20209;-79
2023/04/22 14:29:39;;;;;;;5.20;1.60;;;;;;;;;;5038381;28;20206;-79
2023/04/22 14:32:05;;;;;;;5.03;1.70;;;;;;;;;;5029682;28;20684;-81
2023/04/22 14:34:31;;;;;;;3.20;1.63;;;;;;;;;;5035863;28;20244;-80
2023/04/22 14:36:58;;;;;;;4.80;1.67;;;;;;;;;;5038368;28;20197;-81
2023/04/22 14:39:24;;;;;;;6.47;1.73;;;;;;;;;;5038539;28;20241;-80
2023/04/22 14:41:51;;;;;;;3.77;1.90;;;;;;;;;;5037965;28;20213;-80
2023/04/22 14:44:17;;;;;;;3.87;1.50;;;;;;;;;;5038301;28;20240;-80